sensor_id;sensor_type;location;lat;lon;timestamp;P1;durP1;ratioP1;P2;durP2;ratioP2
828;SDS011;396;52.558;13.188;2023-05-29T00:00:32;7.70;;;2.13;;
828;SDS011;396;52.558;13.188;2023-05-29T00:02:59;7.77;;;2.10;;
828;SDS011;396;52.558;13.188;2023-05-29T00:05:26;9.03;;;2.30;;
828;SDS011;396;52.558;13.188;2023-05-29T00:07:53;9.50;;;2.03;;
828;SDS011;396;52.558;13.188;2023-05-29T00:10:22;5.90;;;1.70;;
828;SDS011;396;52.558;13.188;2023-05-29T00:12:48;13.57;;;2.03;;
828;SDS011;396;52.558;13.188;2023-05-29T00:15:16;6.00;;;1.83;;
828;SDS011;396;52.558;13.188;2023-05-29T00:17:42;6.70;;;2.10;;
828;SDS011;396;52.558;13.188;2023-05-29T00:20:09;8.73;;;2.00;;
828;SDS011;396;52.558;13.188;2023-05-29T00:22:37;6.00;;;1.70;;
828;SDS011;396;52.558;13.188;2023-05-29T00:25:06;8.67;;;2.53;;
828;SDS011;396;52.558;13.188;2023-05-29T00:27:35;7.70;;;2.30;;
828;SDS011;396;52.558;13.188;2023-05-29T00:30:02;6.57;;;1.87;;
828;SDS011;396;52.558;13.188;2023-05-29T00:32:29;5.43;;;1.63;;
828;SDS011;396;52.558;13.188;2023-05-29T00:34:56;8.93;;;2.00;;
828;SDS011;396;52.558;13.188;2023-05-29T00:37:23;6.27;;;1.90;;
828;SDS011;396;52.558;13.188;2023-05-29T00:39:49;6.73;;;2.20;;
828;SDS011;396;52.558;13.188;2023-05-29T00:42:16;9.60;;;2.70;;
828;SDS011;396;52.558;13.188;2023-05-29T00:44:44;8.63;;;1.93;;
828;SDS011;396;52.558;13.188;2023-05-29T00:47:11;8.03;;;2.20;;
828;SDS011;396;52.558;13.188;2023-05-29T00:49:38;6.27;;;1.57;;
828;SDS011;396;52.558;13.188;2023-05-29T00:52:05;7.70;;;1.67;;
828;SDS011;396;52.558;13.188;2023-05-29T00:54:33;9.70;;;2.30;;
828;SDS011;396;52.558;13.188;2023-05-29T00:57:01;6.77;;;1.90;;
828;SDS011;396;52.558;13.188;2023-05-29T00:59:30;8.90;;;2.10;;
828;SDS011;396;52.558;13.188;2023-05-29T01:01:59;7.70;;;2.37;;
828;SDS011;396;52.558;13.188;2023-05-29T01:04:27;9.17;;;2.80;;
828;SDS011;396;52.558;13.188;2023-05-29T01:06:54;8.00;;;2.00;;
828;SDS011;396;52.558;13.188;2023-05-29T01:09:22;8.07;;;2.37;;
828;SDS011;396;52.558;13.188;2023-05-29T01:11:50;11.43;;;3.10;;
828;SDS011;396;52.558;13.188;2023-05-29T01:14:25;9.27;;;2.53;;
828;SDS011;396;52.558;13.188;2023-05-29T01:17:03;8.00;;;1.87;;
828;SDS011;396;52.558;13.188;2023-05-29T01:19:46;10.27;;;2.20;;
828;SDS011;396;52.558;13.188;2023-05-29T01:22:34;7.50;;;2.00;;
828;SDS011;396;52.558;13.188;2023-05-29T01:25:15;6.80;;;2.10;;
828;SDS011;396;52.558;13.188;2023-05-29T01:27:47;8.07;;;2.00;;
828;SDS011;396;52.558;13.188;2023-05-29T01:30:15;7.23;;;1.50;;
828;SDS011;396;52.558;13.188;2023-05-29T01:32:43;7.97;;;2.70;;
828;SDS011;396;52.558;13.188;2023-05-29T01:35:10;7.30;;;1.93;;
828;SDS011;396;52.558;13.188;2023-05-29T01:37:37;7.73;;;2.20;;
828;SDS011;396;52.558;13.188;2023-05-29T01:40:04;6.37;;;1.90;;
828;SDS011;396;52.558;13.188;2023-05-29T01:42:31;8.03;;;2.30;;
828;SDS011;396;52.558;13.188;2023-05-29T01:45:00;11.07;;;2.40;;
828;SDS011;396;52.558;13.188;2023-05-29T01:47:28;10.20;;;3.30;;
828;SDS011;396;52.558;13.188;2023-05-29T01:49:55;11.07;;;2.90;;
828;SDS011;396;52.558;13.188;2023-05-29T01:52:22;13.40;;;2.40;;
828;SDS011;396;52.558;13.188;2023-05-29T01:54:49;8.90;;;2.20;;
828;SDS011;396;52.558;13.188;2023-05-29T01:57:16;10.20;;;3.20;;
828;SDS011;396;52.558;13.188;2023-05-29T01:59:42;6.40;;;1.83;;
828;SDS011;396;52.558;13.188;2023-05-29T02:02:10;10.90;;;1.73;;
828;SDS011;396;52.558;13.188;2023-05-29T02:04:37;9.13;;;2.30;;
828;SDS011;396;52.558;13.188;2023-05-29T02:07:04;8.43;;;2.47;;
828;SDS011;396;52.558;13.188;2023-05-29T02:09:31;6.40;;;1.90;;
828;SDS011;396;52.558;13.188;2023-05-29T02:11:57;8.43;;;2.80;;
828;SDS011;396;52.558;13.188;2023-05-29T02:14:24;8.23;;;2.50;;
828;SDS011;396;52.558;13.188;2023-05-29T02:16:51;8.33;;;2.57;;
828;SDS011;396;52.558;13.188;2023-05-29T02:19:19;8.33;;;2.33;;
828;SDS011;396;52.558;13.188;2023-05-29T02:21:46;8.27;;;2.80;;
828;SDS011;396;52.558;13.188;2023-05-29T02:24:13;7.20;;;2.67;;
828;SDS011;396;52.558;13.188;2023-05-29T02:26:40;8.20;;;2.47;;
828;SDS011;396;52.558;13.188;2023-05-29T02:29:07;11.00;;;2.40;;
828;SDS011;396;52.558;13.188;2023-05-29T02:31:33;7.83;;;2.33;;
828;SDS011;396;52.558;13.188;2023-05-29T02:34:00;8.70;;;2.47;;
828;SDS011;396;52.558;13.188;2023-05-29T02:36:28;12.40;;;2.10;;
828;SDS011;396;52.558;13.188;2023-05-29T02:38:55;6.70;;;1.77;;
828;SDS011;396;52.558;13.188;2023-05-29T02:41:21;6.60;;;2.00;;
828;SDS011;396;52.558;13.188;2023-05-29T02:43:48;6.27;;;2.30;;
828;SDS011;396;52.558;13.188;2023-05-29T02:46:14;7.57;;;2.50;;
828;SDS011;396;52.558;13.188;2023-05-29T02:48:41;8.00;;;2.80;;
828;SDS011;396;52.558;13.188;2023-05-29T02:51:08;6.93;;;2.50;;
828;SDS011;396;52.558;13.188;2023-05-29T02:53:36;10.10;;;2.77;;
828;SDS011;396;52.558;13.188;2023-05-29T02:56:02;9.80;;;2.50;;
828;SDS011;396;52.558;13.188;2023-05-29T02:58:29;9.53;;;2.43;;
828;SDS011;396;52.558;13.188;2023-05-29T03:00:56;14.80;;;2.50;;
828;SDS011;396;52.558;13.188;2023-05-29T03:03:23;11.03;;;3.10;;
828;SDS011;396;52.558;13.188;2023-05-29T03:05:50;6.70;;;1.80;;
828;SDS011;396;52.558;13.188;2023-05-29T03:08:16;8.13;;;2.40;;
828;SDS011;396;52.558;13.188;2023-05-29T03:10:45;7.50;;;2.77;;
828;SDS011;396;52.558;13.188;2023-05-29T03:13:12;9.07;;;2.57;;
828;SDS011;396;52.558;13.188;2023-05-29T03:15:38;7.83;;;2.50;;
828;SDS011;396;52.558;13.188;2023-05-29T03:18:05;7.43;;;2.60;;
828;SDS011;396;52.558;13.188;2023-05-29T03:20:32;7.40;;;3.10;;
828;SDS011;396;52.558;13.188;2023-05-29T03:22:58;7.23;;;2.10;;
828;SDS011;396;52.558;13.188;2023-05-29T03:25:25;10.17;;;2.90;;
828;SDS011;396;52.558;13.188;2023-05-29T03:27:53;8.27;;;2.57;;
828;SDS011;396;52.558;13.188;2023-05-29T03:30:19;7.70;;;2.43;;
828;SDS011;396;52.558;13.188;2023-05-29T03:32:46;9.13;;;2.43;;
828;SDS011;396;52.558;13.188;2023-05-29T03:35:13;6.77;;;2.27;;
828;SDS011;396;52.558;13.188;2023-05-29T03:37:39;16.57;;;3.27;;
828;SDS011;396;52.558;13.188;2023-05-29T03:40:06;12.73;;;1.97;;
828;SDS011;396;52.558;13.188;2023-05-29T03:42:34;8.10;;;2.43;;
828;SDS011;396;52.558;13.188;2023-05-29T03:45:02;10.23;;;2.80;;
828;SDS011;396;52.558;13.188;2023-05-29T03:47:29;9.10;;;3.00;;
828;SDS011;396;52.558;13.188;2023-05-29T03:49:55;8.00;;;2.50;;
828;SDS011;396;52.558;13.188;2023-05-29T03:52:22;7.37;;;1.83;;
828;SDS011;396;52.558;13.188;2023-05-29T03:54:48;6.70;;;2.40;;
828;SDS011;396;52.558;13.188;2023-05-29T03:57:15;8.20;;;2.90;;
828;SDS011;396;52.558;13.188;2023-05-29T03:59:41;8.93;;;3.40;;
828;SDS011;396;52.558;13.188;2023-05-29T04:02:09;8.07;;;2.87;;
828;SDS011;396;52.558;13.188;2023-05-29T04:04:36;7.90;;;2.87;;
828;SDS011;396;52.558;13.188;2023-05-29T04:07:04;9.40;;;3.50;;
828;SDS011;396;52.558;13.188;2023-05-29T04:09:31;11.27;;;2.90;;
828;SDS011;396;52.558;13.188;2023-05-29T04:11:58;7.33;;;2.73;;
828;SDS011;396;52.558;13.188;2023-05-29T04:14:27;11.07;;;3.03;;
828;SDS011;396;52.558;13.188;2023-05-29T04:16:54;7.90;;;2.73;;
828;SDS011;396;52.558;13.188;2023-05-29T04:19:21;12.37;;;2.80;;
828;SDS011;396;52.558;13.188;2023-05-29T04:21:48;12.03;;;3.37;;
828;SDS011;396;52.558;13.188;2023-05-29T04:24:16;8.43;;;3.90;;
828;SDS011;396;52.558;13.188;2023-05-29T04:26:42;7.90;;;3.13;;
828;SDS011;396;52.558;13.188;2023-05-29T04:29:09;8.03;;;3.20;;
828;SDS011;396;52.558;13.188;2023-05-29T04:31:37;7.77;;;2.73;;
828;SDS011;396;52.558;13.188;2023-05-29T04:34:05;11.10;;;3.30;;
828;SDS011;396;52.558;13.188;2023-05-29T04:36:33;9.90;;;2.60;;
828;SDS011;396;52.558;13.188;2023-05-29T04:39:03;10.67;;;2.67;;
828;SDS011;396;52.558;13.188;2023-05-29T04:41:30;8.20;;;2.50;;
828;SDS011;396;52.558;13.188;2023-05-29T04:43:57;8.43;;;2.77;;
828;SDS011;396;52.558;13.188;2023-05-29T04:46:24;9.13;;;2.80;;
828;SDS011;396;52.558;13.188;2023-05-29T04:48:51;7.07;;;2.60;;
828;SDS011;396;52.558;13.188;2023-05-29T04:51:18;9.83;;;2.90;;
828;SDS011;396;52.558;13.188;2023-05-29T04:53:47;8.03;;;2.70;;
828;SDS011;396;52.558;13.188;2023-05-29T04:56:15;10.50;;;2.87;;
828;SDS011;396;52.558;13.188;2023-05-29T04:58:41;9.60;;;2.90;;
828;SDS011;396;52.558;13.188;2023-05-29T05:01:09;6.23;;;2.20;;
828;SDS011;396;52.558;13.188;2023-05-29T05:03:39;9.80;;;2.83;;
828;SDS011;396;52.558;13.188;2023-05-29T05:06:06;5.40;;;1.70;;
828;SDS011;396;52.558;13.188;2023-05-29T05:08:32;6.40;;;2.37;;
828;SDS011;396;52.558;13.188;2023-05-29T05:11:00;13.80;;;2.43;;
828;SDS011;396;52.558;13.188;2023-05-29T05:13:27;9.97;;;2.87;;
828;SDS011;396;52.558;13.188;2023-05-29T05:15:54;7.80;;;2.67;;
828;SDS011;396;52.558;13.188;2023-05-29T05:18:21;9.97;;;2.00;;
828;SDS011;396;52.558;13.188;2023-05-29T05:20:47;5.60;;;1.90;;
828;SDS011;396;52.558;13.188;2023-05-29T05:23:14;5.93;;;2.03;;
828;SDS011;396;52.558;13.188;2023-05-29T05:25:40;6.60;;;2.27;;
828;SDS011;396;52.558;13.188;2023-05-29T05:28:09;10.83;;;2.53;;
828;SDS011;396;52.558;13.188;2023-05-29T05:30:35;7.77;;;2.03;;
828;SDS011;396;52.558;13.188;2023-05-29T05:33:02;8.07;;;2.70;;
828;SDS011;396;52.558;13.188;2023-05-29T05:35:29;9.60;;;2.13;;
828;SDS011;396;52.558;13.188;2023-05-29T05:37:56;11.43;;;2.47;;
828;SDS011;396;52.558;13.188;2023-05-29T05:40:23;10.10;;;3.17;;
828;SDS011;396;52.558;13.188;2023-05-29T05:42:50;9.20;;;2.73;;
828;SDS011;396;52.558;13.188;2023-05-29T05:45:18;7.40;;;1.90;;
828;SDS011;396;52.558;13.188;2023-05-29T05:47:45;6.57;;;2.20;;
828;SDS011;396;52.558;13.188;2023-05-29T05:50:12;6.30;;;1.87;;
828;SDS011;396;52.558;13.188;2023-05-29T05:52:38;5.80;;;2.30;;
828;SDS011;396;52.558;13.188;2023-05-29T05:55:05;8.53;;;2.60;;
828;SDS011;396;52.558;13.188;2023-05-29T05:57:33;7.80;;;2.53;;
828;SDS011;396;52.558;13.188;2023-05-29T06:00:00;6.10;;;2.00;;
828;SDS011;396;52.558;13.188;2023-05-29T06:02:31;9.53;;;2.00;;
828;SDS011;396;52.558;13.188;2023-05-29T06:04:57;7.47;;;1.80;;
828;SDS011;396;52.558;13.188;2023-05-29T06:07:24;9.50;;;2.20;;
828;SDS011;396;52.558;13.188;2023-05-29T06:09:51;4.93;;;1.00;;
828;SDS011;396;52.558;13.188;2023-05-29T06:12:17;5.73;;;1.40;;
828;SDS011;396;52.558;13.188;2023-05-29T06:14:44;6.27;;;1.43;;
828;SDS011;396;52.558;13.188;2023-05-29T06:17:11;8.23;;;1.90;;
828;SDS011;396;52.558;13.188;2023-05-29T06:19:39;5.10;;;1.30;;
828;SDS011;396;52.558;13.188;2023-05-29T06:22:06;6.80;;;1.60;;
828;SDS011;396;52.558;13.188;2023-05-29T06:24:32;5.80;;;1.53;;
828;SDS011;396;52.558;13.188;2023-05-29T06:26:59;5.20;;;1.43;;
828;SDS011;396;52.558;13.188;2023-05-29T06:29:26;5.77;;;1.50;;
828;SDS011;396;52.558;13.188;2023-05-29T06:31:53;6.60;;;1.60;;
828;SDS011;396;52.558;13.188;2023-05-29T06:34:19;4.90;;;1.30;;
828;SDS011;396;52.558;13.188;2023-05-29T06:36:47;6.30;;;1.57;;
828;SDS011;396;52.558;13.188;2023-05-29T06:39:14;6.03;;;1.67;;
828;SDS011;396;52.558;13.188;2023-05-29T06:41:43;5.87;;;1.43;;
828;SDS011;396;52.558;13.188;2023-05-29T06:44:09;6.30;;;1.57;;
828;SDS011;396;52.558;13.188;2023-05-29T06:46:36;5.90;;;1.77;;
828;SDS011;396;52.558;13.188;2023-05-29T06:49:02;13.60;;;1.90;;
828;SDS011;396;52.558;13.188;2023-05-29T06:51:29;4.90;;;1.10;;
828;SDS011;396;52.558;13.188;2023-05-29T06:53:58;5.23;;;1.60;;
828;SDS011;396;52.558;13.188;2023-05-29T06:56:25;5.23;;;1.20;;
828;SDS011;396;52.558;13.188;2023-05-29T06:58:52;4.90;;;1.10;;
828;SDS011;396;52.558;13.188;2023-05-29T07:01:19;5.80;;;1.57;;
828;SDS011;396;52.558;13.188;2023-05-29T07:03:46;5.90;;;1.70;;
828;SDS011;396;52.558;13.188;2023-05-29T07:06:12;7.03;;;1.97;;
828;SDS011;396;52.558;13.188;2023-05-29T07:08:39;7.17;;;1.43;;
828;SDS011;396;52.558;13.188;2023-05-29T07:11:07;5.30;;;1.40;;
828;SDS011;396;52.558;13.188;2023-05-29T07:13:34;6.30;;;1.67;;
828;SDS011;396;52.558;13.188;2023-05-29T07:16:01;6.90;;;1.57;;
828;SDS011;396;52.558;13.188;2023-05-29T07:18:27;5.23;;;1.40;;
828;SDS011;396;52.558;13.188;2023-05-29T07:20:55;4.80;;;1.13;;
828;SDS011;396;52.558;13.188;2023-05-29T07:23:23;6.17;;;1.67;;
828;SDS011;396;52.558;13.188;2023-05-29T07:25:50;6.00;;;1.70;;
828;SDS011;396;52.558;13.188;2023-05-29T07:28:18;5.00;;;1.13;;
828;SDS011;396;52.558;13.188;2023-05-29T07:30:45;6.53;;;1.60;;
828;SDS011;396;52.558;13.188;2023-05-29T07:33:11;5.00;;;1.27;;
828;SDS011;396;52.558;13.188;2023-05-29T07:35:38;5.17;;;1.20;;
828;SDS011;396;52.558;13.188;2023-05-29T07:38:04;6.17;;;1.77;;
828;SDS011;396;52.558;13.188;2023-05-29T07:40:31;6.03;;;1.77;;
828;SDS011;396;52.558;13.188;2023-05-29T07:42:58;5.83;;;1.40;;
828;SDS011;396;52.558;13.188;2023-05-29T07:45:26;5.20;;;1.40;;
828;SDS011;396;52.558;13.188;2023-05-29T07:47:53;5.20;;;1.40;;
828;SDS011;396;52.558;13.188;2023-05-29T07:50:19;5.90;;;1.73;;
828;SDS011;396;52.558;13.188;2023-05-29T07:52:46;7.13;;;1.47;;
828;SDS011;396;52.558;13.188;2023-05-29T07:55:13;5.20;;;1.10;;
828;SDS011;396;52.558;13.188;2023-05-29T07:57:39;5.90;;;1.30;;
828;SDS011;396;52.558;13.188;2023-05-29T08:00:06;6.77;;;1.67;;
828;SDS011;396;52.558;13.188;2023-05-29T08:02:35;5.67;;;1.30;;
828;SDS011;396;52.558;13.188;2023-05-29T08:05:02;5.17;;;1.17;;
828;SDS011;396;52.558;13.188;2023-05-29T08:07:29;5.53;;;1.20;;
828;SDS011;396;52.558;13.188;2023-05-29T08:09:57;6.10;;;1.20;;
828;SDS011;396;52.558;13.188;2023-05-29T08:12:23;6.67;;;1.37;;
828;SDS011;396;52.558;13.188;2023-05-29T08:14:50;6.13;;;1.37;;
828;SDS011;396;52.558;13.188;2023-05-29T08:17:17;5.17;;;1.30;;
828;SDS011;396;52.558;13.188;2023-05-29T08:19:45;4.80;;;1.00;;
828;SDS011;396;52.558;13.188;2023-05-29T08:22:12;5.83;;;1.57;;
828;SDS011;396;52.558;13.188;2023-05-29T08:24:40;6.10;;;1.40;;
828;SDS011;396;52.558;13.188;2023-05-29T08:27:06;5.90;;;1.13;;
828;SDS011;396;52.558;13.188;2023-05-29T08:29:33;7.17;;;1.33;;
828;SDS011;396;52.558;13.188;2023-05-29T08:32:01;5.20;;;1.30;;
828;SDS011;396;52.558;13.188;2023-05-29T08:34:27;5.07;;;1.20;;
828;SDS011;396;52.558;13.188;2023-05-29T08:36:55;5.80;;;1.57;;
828;SDS011;396;52.558;13.188;2023-05-29T08:39:22;5.10;;;1.30;;
828;SDS011;396;52.558;13.188;2023-05-29T08:41:50;5.20;;;1.10;;
828;SDS011;396;52.558;13.188;2023-05-29T08:44:23;4.83;;;1.17;;
828;SDS011;396;52.558;13.188;2023-05-29T08:46:50;7.10;;;1.50;;
828;SDS011;396;52.558;13.188;2023-05-29T08:49:20;6.17;;;1.40;;
828;SDS011;396;52.558;13.188;2023-05-29T08:51:49;5.17;;;1.20;;
828;SDS011;396;52.558;13.188;2023-05-29T08:54:19;4.93;;;1.20;;
828;SDS011;396;52.558;13.188;2023-05-29T08:56:46;6.00;;;1.47;;
828;SDS011;396;52.558;13.188;2023-05-29T08:59:13;11.97;;;1.77;;
828;SDS011;396;52.558;13.188;2023-05-29T09:01:41;6.67;;;1.70;;
828;SDS011;396;52.558;13.188;2023-05-29T09:04:08;6.27;;;1.53;;
828;SDS011;396;52.558;13.188;2023-05-29T09:06:35;5.83;;;1.50;;
828;SDS011;396;52.558;13.188;2023-05-29T09:09:03;7.00;;;1.60;;
828;SDS011;396;52.558;13.188;2023-05-29T09:11:32;6.63;;;1.43;;
828;SDS011;396;52.558;13.188;2023-05-29T09:13:59;6.70;;;2.13;;
828;SDS011;396;52.558;13.188;2023-05-29T09:16:27;4.93;;;1.43;;
828;SDS011;396;52.558;13.188;2023-05-29T09:18:56;5.40;;;1.20;;
828;SDS011;396;52.558;13.188;2023-05-29T09:21:31;5.97;;;1.67;;
828;SDS011;396;52.558;13.188;2023-05-29T09:24:02;5.93;;;1.67;;
828;SDS011;396;52.558;13.188;2023-05-29T09:26:31;7.20;;;2.03;;
828;SDS011;396;52.558;13.188;2023-05-29T09:28:58;7.13;;;1.23;;
828;SDS011;396;52.558;13.188;2023-05-29T09:31:26;6.53;;;1.53;;
828;SDS011;396;52.558;13.188;2023-05-29T09:33:53;5.60;;;1.40;;
828;SDS011;396;52.558;13.188;2023-05-29T09:36:20;5.90;;;1.80;;
828;SDS011;396;52.558;13.188;2023-05-29T09:38:48;4.80;;;1.10;;
828;SDS011;396;52.558;13.188;2023-05-29T09:41:19;7.80;;;1.60;;
828;SDS011;396;52.558;13.188;2023-05-29T09:43:48;6.87;;;2.10;;
828;SDS011;396;52.558;13.188;2023-05-29T09:46:15;4.80;;;1.30;;
828;SDS011;396;52.558;13.188;2023-05-29T09:48:43;6.60;;;1.40;;
828;SDS011;396;52.558;13.188;2023-05-29T09:51:18;5.90;;;1.37;;
828;SDS011;396;52.558;13.188;2023-05-29T09:53:45;5.37;;;1.37;;
828;SDS011;396;52.558;13.188;2023-05-29T09:56:12;5.20;;;1.50;;
828;SDS011;396;52.558;13.188;2023-05-29T09:58:40;5.47;;;1.37;;
828;SDS011;396;52.558;13.188;2023-05-29T10:01:12;7.10;;;1.47;;
828;SDS011;396;52.558;13.188;2023-05-29T10:03:40;9.87;;;1.93;;
828;SDS011;396;52.558;13.188;2023-05-29T10:06:07;11.53;;;1.70;;
828;SDS011;396;52.558;13.188;2023-05-29T10:08:38;12.93;;;1.50;;
828;SDS011;396;52.558;13.188;2023-05-29T10:11:12;4.50;;;1.20;;
828;SDS011;396;52.558;13.188;2023-05-29T10:13:42;4.97;;;1.10;;
828;SDS011;396;52.558;13.188;2023-05-29T10:16:15;5.80;;;1.33;;
828;SDS011;396;52.558;13.188;2023-05-29T10:18:47;5.37;;;1.53;;
828;SDS011;396;52.558;13.188;2023-05-29T10:21:18;4.90;;;1.30;;
828;SDS011;396;52.558;13.188;2023-05-29T10:23:45;5.03;;;1.33;;
828;SDS011;396;52.558;13.188;2023-05-29T10:26:15;7.00;;;1.57;;
828;SDS011;396;52.558;13.188;2023-05-29T10:28:46;4.90;;;1.13;;
828;SDS011;396;52.558;13.188;2023-05-29T10:31:22;4.80;;;1.10;;
828;SDS011;396;52.558;13.188;2023-05-29T10:33:58;8.63;;;2.03;;
828;SDS011;396;52.558;13.188;2023-05-29T10:36:34;5.40;;;1.57;;
828;SDS011;396;52.558;13.188;2023-05-29T10:39:05;4.90;;;1.20;;
828;SDS011;396;52.558;13.188;2023-05-29T10:41:32;5.17;;;1.27;;
828;SDS011;396;52.558;13.188;2023-05-29T10:44:04;6.63;;;1.63;;
828;SDS011;396;52.558;13.188;2023-05-29T10:47:10;7.20;;;1.67;;
828;SDS011;396;52.558;13.188;2023-05-29T10:49:37;9.80;;;1.47;;
828;SDS011;396;52.558;13.188;2023-05-29T10:52:04;8.97;;;1.63;;
828;SDS011;396;52.558;13.188;2023-05-29T10:54:40;5.30;;;1.20;;
828;SDS011;396;52.558;13.188;2023-05-29T10:57:16;5.93;;;1.63;;
828;SDS011;396;52.558;13.188;2023-05-29T10:59:44;5.40;;;1.17;;
828;SDS011;396;52.558;13.188;2023-05-29T11:02:12;5.37;;;1.50;;
828;SDS011;396;52.558;13.188;2023-05-29T11:04:44;4.87;;;1.40;;
828;SDS011;396;52.558;13.188;2023-05-29T11:10:10;5.50;;;1.27;;
828;SDS011;396;52.558;13.188;2023-05-29T11:12:41;5.80;;;1.60;;
828;SDS011;396;52.558;13.188;2023-05-29T11:15:23;5.57;;;1.60;;
828;SDS011;396;52.558;13.188;2023-05-29T11:17:52;6.20;;;1.50;;
828;SDS011;396;52.558;13.188;2023-05-29T11:20:27;5.00;;;1.40;;
828;SDS011;396;52.558;13.188;2023-05-29T11:23:00;5.27;;;1.27;;
828;SDS011;396;52.558;13.188;2023-05-29T11:25:33;5.50;;;1.13;;
828;SDS011;396;52.558;13.188;2023-05-29T11:28:00;6.37;;;1.73;;
828;SDS011;396;52.558;13.188;2023-05-29T11:30:28;6.53;;;1.70;;
828;SDS011;396;52.558;13.188;2023-05-29T11:32:57;6.30;;;1.60;;
828;SDS011;396;52.558;13.188;2023-05-29T11:35:30;4.93;;;1.33;;
828;SDS011;396;52.558;13.188;2023-05-29T11:37:59;5.20;;;1.00;;
828;SDS011;396;52.558;13.188;2023-05-29T11:40:28;5.93;;;1.90;;
828;SDS011;396;52.558;13.188;2023-05-29T11:42:55;4.90;;;1.40;;
828;SDS011;396;52.558;13.188;2023-05-29T11:45:22;5.73;;;1.40;;
828;SDS011;396;52.558;13.188;2023-05-29T11:47:50;6.10;;;1.27;;
828;SDS011;396;52.558;13.188;2023-05-29T11:50:19;4.63;;;0.90;;
828;SDS011;396;52.558;13.188;2023-05-29T11:52:47;7.50;;;1.17;;
828;SDS011;396;52.558;13.188;2023-05-29T11:55:14;5.20;;;1.33;;
828;SDS011;396;52.558;13.188;2023-05-29T11:57:41;5.40;;;1.60;;
828;SDS011;396;52.558;13.188;2023-05-29T12:00:08;6.20;;;1.27;;
828;SDS011;396;52.558;13.188;2023-05-29T12:02:38;5.27;;;1.13;;
828;SDS011;396;52.558;13.188;2023-05-29T12:05:05;5.10;;;1.30;;
828;SDS011;396;52.558;13.188;2023-05-29T12:07:35;4.70;;;1.07;;
828;SDS011;396;52.558;13.188;2023-05-29T12:10:08;4.50;;;1.20;;
828;SDS011;396;52.558;13.188;2023-05-29T12:12:35;9.10;;;1.70;;
828;SDS011;396;52.558;13.188;2023-05-29T12:15:02;4.80;;;1.40;;
828;SDS011;396;52.558;13.188;2023-05-29T12:17:31;4.40;;;1.03;;
828;SDS011;396;52.558;13.188;2023-05-29T12:19:58;5.13;;;1.43;;
828;SDS011;396;52.558;13.188;2023-05-29T12:22:32;5.53;;;1.50;;
828;SDS011;396;52.558;13.188;2023-05-29T12:25:06;6.40;;;1.10;;
828;SDS011;396;52.558;13.188;2023-05-29T12:27:35;5.17;;;1.27;;
828;SDS011;396;52.558;13.188;2023-05-29T12:30:07;5.10;;;1.50;;
828;SDS011;396;52.558;13.188;2023-05-29T12:32:36;6.77;;;1.57;;
828;SDS011;396;52.558;13.188;2023-05-29T12:35:09;7.93;;;1.40;;
828;SDS011;396;52.558;13.188;2023-05-29T12:37:41;6.13;;;1.20;;
828;SDS011;396;52.558;13.188;2023-05-29T12:40:10;5.00;;;1.57;;
828;SDS011;396;52.558;13.188;2023-05-29T12:42:40;6.27;;;1.40;;
828;SDS011;396;52.558;13.188;2023-05-29T12:45:07;8.77;;;1.97;;
828;SDS011;396;52.558;13.188;2023-05-29T12:47:35;5.17;;;1.40;;
828;SDS011;396;52.558;13.188;2023-05-29T12:50:18;4.20;;;0.80;;
828;SDS011;396;52.558;13.188;2023-05-29T12:52:46;4.93;;;1.57;;
828;SDS011;396;52.558;13.188;2023-05-29T12:55:14;5.20;;;1.30;;
828;SDS011;396;52.558;13.188;2023-05-29T12:57:40;4.47;;;1.07;;
828;SDS011;396;52.558;13.188;2023-05-29T13:00:10;5.37;;;1.50;;
828;SDS011;396;52.558;13.188;2023-05-29T13:02:37;5.20;;;1.10;;
828;SDS011;396;52.558;13.188;2023-05-29T13:05:04;4.30;;;1.17;;
828;SDS011;396;52.558;13.188;2023-05-29T13:07:32;4.40;;;0.80;;
828;SDS011;396;52.558;13.188;2023-05-29T13:09:58;5.00;;;1.30;;
828;SDS011;396;52.558;13.188;2023-05-29T13:12:27;9.23;;;1.57;;
828;SDS011;396;52.558;13.188;2023-05-29T13:14:53;4.33;;;0.90;;
828;SDS011;396;52.558;13.188;2023-05-29T13:17:21;4.10;;;0.80;;
828;SDS011;396;52.558;13.188;2023-05-29T13:19:47;4.60;;;1.00;;
828;SDS011;396;52.558;13.188;2023-05-29T13:22:14;5.50;;;1.27;;
828;SDS011;396;52.558;13.188;2023-05-29T13:24:41;5.47;;;1.40;;
828;SDS011;396;52.558;13.188;2023-05-29T13:27:07;4.80;;;1.20;;
828;SDS011;396;52.558;13.188;2023-05-29T13:29:35;5.90;;;1.63;;
828;SDS011;396;52.558;13.188;2023-05-29T13:32:02;5.13;;;1.20;;
828;SDS011;396;52.558;13.188;2023-05-29T13:34:29;4.40;;;1.00;;
828;SDS011;396;52.558;13.188;2023-05-29T13:36:55;4.93;;;1.30;;
828;SDS011;396;52.558;13.188;2023-05-29T13:39:22;8.20;;;1.47;;
828;SDS011;396;52.558;13.188;2023-05-29T13:41:49;5.00;;;1.20;;
828;SDS011;396;52.558;13.188;2023-05-29T13:44:16;6.77;;;1.37;;
828;SDS011;396;52.558;13.188;2023-05-29T13:46:44;4.40;;;1.00;;
828;SDS011;396;52.558;13.188;2023-05-29T13:49:10;5.27;;;1.00;;
828;SDS011;396;52.558;13.188;2023-05-29T13:51:37;5.10;;;1.00;;
828;SDS011;396;52.558;13.188;2023-05-29T13:54:04;5.10;;;1.20;;
828;SDS011;396;52.558;13.188;2023-05-29T13:56:30;6.10;;;1.33;;
828;SDS011;396;52.558;13.188;2023-05-29T13:58:57;6.53;;;1.23;;
828;SDS011;396;52.558;13.188;2023-05-29T14:01:28;5.37;;;1.20;;
828;SDS011;396;52.558;13.188;2023-05-29T14:03:57;5.13;;;1.13;;
828;SDS011;396;52.558;13.188;2023-05-29T14:06:23;4.83;;;1.07;;
828;SDS011;396;52.558;13.188;2023-05-29T14:08:50;5.93;;;1.03;;
828;SDS011;396;52.558;13.188;2023-05-29T14:11:16;5.53;;;1.23;;
828;SDS011;396;52.558;13.188;2023-05-29T14:13:43;6.37;;;1.37;;
828;SDS011;396;52.558;13.188;2023-05-29T14:16:10;5.03;;;1.10;;
828;SDS011;396;52.558;13.188;2023-05-29T14:18:37;5.00;;;1.27;;
828;SDS011;396;52.558;13.188;2023-05-29T14:21:04;5.40;;;1.10;;
828;SDS011;396;52.558;13.188;2023-05-29T14:23:31;7.10;;;1.00;;
828;SDS011;396;52.558;13.188;2023-05-29T14:25:59;5.67;;;1.30;;
828;SDS011;396;52.558;13.188;2023-05-29T14:28:25;5.90;;;1.40;;
828;SDS011;396;52.558;13.188;2023-05-29T14:30:52;6.10;;;1.07;;
828;SDS011;396;52.558;13.188;2023-05-29T14:33:19;4.93;;;1.50;;
828;SDS011;396;52.558;13.188;2023-05-29T14:35:45;4.93;;;1.30;;
828;SDS011;396;52.558;13.188;2023-05-29T14:38:13;4.70;;;1.30;;
828;SDS011;396;52.558;13.188;2023-05-29T14:40:40;5.33;;;1.23;;
828;SDS011;396;52.558;13.188;2023-05-29T14:43:06;7.43;;;1.20;;
828;SDS011;396;52.558;13.188;2023-05-29T14:45:33;5.30;;;1.17;;
828;SDS011;396;52.558;13.188;2023-05-29T14:48:00;4.83;;;1.20;;
828;SDS011;396;52.558;13.188;2023-05-29T14:50:27;5.30;;;1.00;;
828;SDS011;396;52.558;13.188;2023-05-29T14:52:54;5.53;;;1.30;;
828;SDS011;396;52.558;13.188;2023-05-29T14:55:21;5.20;;;1.10;;
828;SDS011;396;52.558;13.188;2023-05-29T14:57:48;5.27;;;1.27;;
828;SDS011;396;52.558;13.188;2023-05-29T15:00:15;4.40;;;0.83;;
828;SDS011;396;52.558;13.188;2023-05-29T15:02:42;4.30;;;0.90;;
828;SDS011;396;52.558;13.188;2023-05-29T15:05:09;4.70;;;0.97;;
828;SDS011;396;52.558;13.188;2023-05-29T15:07:35;6.50;;;1.27;;
828;SDS011;396;52.558;13.188;2023-05-29T15:10:02;5.90;;;1.07;;
828;SDS011;396;52.558;13.188;2023-05-29T15:12:30;5.17;;;1.07;;
828;SDS011;396;52.558;13.188;2023-05-29T15:14:57;6.13;;;1.57;;
828;SDS011;396;52.558;13.188;2023-05-29T15:17:23;5.63;;;1.20;;
828;SDS011;396;52.558;13.188;2023-05-29T15:19:50;4.70;;;0.97;;
828;SDS011;396;52.558;13.188;2023-05-29T15:22:17;4.70;;;0.90;;
828;SDS011;396;52.558;13.188;2023-05-29T15:24:43;5.20;;;1.20;;
828;SDS011;396;52.558;13.188;2023-05-29T15:27:10;6.00;;;1.20;;
828;SDS011;396;52.558;13.188;2023-05-29T15:29:41;7.07;;;1.23;;
828;SDS011;396;52.558;13.188;2023-05-29T15:32:08;9.97;;;1.80;;
828;SDS011;396;52.558;13.188;2023-05-29T15:34:35;5.50;;;1.50;;
828;SDS011;396;52.558;13.188;2023-05-29T15:37:01;6.77;;;1.67;;